Aviation Digital Data Service (ADDS)

Output produced by METARs form (1907 UTC 24 April 2014)
found at http://aviationweather.gov/adds/metars/
 
KDAN 241730Z 2418/2518 19005KT P6SM FEW250 
     FM250100 17003KT P6SM SCT250 
     FM251200 16005KT P6SM OVC025 
     FM251400 16007KT P6SM -SHRA OVC025